createdAt,value
2022-08-22T00:14:22.111Z,18.59
2022-08-22T00:25:00.601Z,18.49
2022-08-22T00:30:20.181Z,18.45
2022-08-22T00:40:58.993Z,18.32
2022-08-22T00:56:56.476Z,18.19
2022-08-22T01:07:37.958Z,18.08
2022-08-22T01:12:53.758Z,18.01
2022-08-22T01:21:38.842Z,17.95
2022-08-22T01:29:59.899Z,17.85
2022-08-22T01:39:30.649Z,17.78
2022-08-22T01:50:09.901Z,17.67
2022-08-22T02:11:32.563Z,17.45
2022-08-22T02:22:17.237Z,17.34
2022-08-22T02:30:38.268Z,17.29
2022-08-22T02:48:41.849Z,17.1
2022-08-22T02:54:01.060Z,17.07
2022-08-22T03:04:39.631Z,16.94
2022-08-22T03:15:17.824Z,16.86
2022-08-22T03:20:37.215Z,16.77
2022-08-22T03:31:15.701Z,16.76
2022-08-22T03:36:34.596Z,16.69
2022-08-22T03:41:53.629Z,16.67
2022-08-22T03:52:32.581Z,16.57
2022-08-22T03:57:52.272Z,16.53
2022-08-22T04:08:30.779Z,16.45
2022-08-22T04:13:50.344Z,16.41
2022-08-22T04:24:29.007Z,16.36
2022-08-22T04:29:47.911Z,16.33
2022-08-22T04:56:29.543Z,16.26
2022-08-22T05:07:01.949Z,16.26
2022-08-22T05:23:16.906Z,16.29
2022-08-22T05:33:36.968Z,16.65
2022-08-22T05:38:56.381Z,16.79
2022-08-22T05:44:15.301Z,16.95
2022-08-22T05:49:34.190Z,17.17
2022-08-22T05:55:05.637Z,17.37
2022-08-22T06:05:32.196Z,17.81
2022-08-22T06:16:11.255Z,18.33
2022-08-22T06:21:40.556Z,18.62
2022-08-22T06:32:09.135Z,19.15
2022-08-22T06:48:06.601Z,20.06
2022-08-22T07:04:03.878Z,21
2022-08-22T07:18:08.217Z,21.68
2022-08-22T07:22:24.701Z,22.02
2022-08-22T07:26:29.262Z,22.37
2022-08-22T07:30:40.538Z,22.7
2022-08-22T07:39:13.621Z,23.1
2022-08-22T07:57:16.132Z,24.57
2022-08-22T08:02:34.946Z,24.9
2022-08-22T08:11:08.045Z,25.34
2022-08-22T08:15:24.532Z,25.69
2022-08-22T08:29:11.563Z,26.88
2022-08-22T08:37:44.566Z,27.25
2022-08-22T09:01:34.950Z,28.94
2022-08-22T09:12:13.205Z,29.61
2022-08-22T09:17:32.688Z,29.95
2022-08-22T09:28:10.361Z,30.68
2022-08-22T09:33:29.683Z,31.04
2022-08-22T09:42:02.784Z,31.34
2022-08-22T09:44:08.484Z,31.85
2022-08-22T09:49:27.774Z,32.32
2022-08-22T09:54:46.912Z,32.47
2022-08-22T10:00:05.826Z,32.81
2022-08-22T10:08:38.901Z,33.38
2022-08-22T10:10:44.043Z,33.75
2022-08-22T10:37:23.693Z,35.65
2022-08-22T10:47:58.190Z,36.21
2022-08-22T10:53:17.050Z,36.43
2022-08-22T11:03:55.884Z,36.97
2022-08-22T11:09:14.867Z,37.18
2022-08-22T11:14:44.777Z,37.31
2022-08-22T11:19:53.139Z,37.34
2022-08-22T11:30:36.287Z,37.25
2022-08-22T11:35:51.549Z,36.77
2022-08-22T11:46:29.942Z,36.08
2022-08-22T11:51:49.457Z,35.82
2022-08-22T12:02:28.004Z,35.33
2022-08-22T12:07:49.133Z,35.28
2022-08-22T12:18:25.080Z,34.53
2022-08-22T12:36:33.327Z,33.98
2022-08-22T12:45:00.250Z,33.06
2022-08-22T13:00:56.883Z,32.66
2022-08-22T13:14:49.067Z,33.18
2022-08-22T13:16:53.941Z,33.66
2022-08-22T13:27:32.674Z,34.25
2022-08-22T13:32:51.657Z,34.47
2022-08-22T13:43:29.819Z,34.75
2022-08-22T13:48:49.597Z,34.91
2022-08-22T13:59:47.437Z,34.91
2022-08-22T14:10:05.669Z,34.84
2022-08-22T14:15:24.877Z,34.75
2022-08-22T14:26:02.678Z,34.73
2022-08-22T14:31:21.532Z,34.61
2022-08-22T14:49:30.334Z,34.16
2022-08-22T14:53:46.902Z,34.09
2022-08-22T14:57:56.904Z,33.55
2022-08-22T15:08:35.010Z,32.66
2022-08-22T15:13:53.907Z,32.36
2022-08-22T15:19:13.403Z,32.06
2022-08-22T15:24:32.686Z,31.76
2022-08-22T15:38:24.849Z,31.24
2022-08-22T15:46:57.939Z,30.78
2022-08-22T15:51:09.177Z,30.67
2022-08-22T15:56:26.706Z,30.43
2022-08-22T16:07:05.582Z,30.05
2022-08-22T16:23:03.111Z,29.49
2022-08-22T16:33:40.755Z,29.11
2022-08-22T16:39:00.119Z,28.95
2022-08-22T16:49:37.937Z,28.64
2022-08-22T17:05:34.883Z,28.17
2022-08-22T17:16:13.342Z,27.89
2022-08-22T17:26:55.108Z,27.62
2022-08-22T17:32:10.729Z,27.52
2022-08-22T17:37:29.638Z,27.38
2022-08-22T17:42:59.489Z,27.22
2022-08-22T18:06:16.903Z,26.64
2022-08-22T18:14:44.072Z,26.39
2022-08-22T18:25:22.304Z,26.07
2022-08-22T18:41:19.935Z,25.72
2022-08-22T18:57:17.179Z,25.34
2022-08-22T19:05:50.239Z,25.18
2022-08-22T19:23:53.384Z,24.77
2022-08-22T19:29:12.217Z,24.61
2022-08-22T19:34:31.168Z,24.54
2022-08-22T19:39:49.871Z,24.46
2022-08-22T19:53:54.126Z,24.23
2022-08-22T19:57:58.633Z,24.16
2022-08-22T20:11:57.430Z,23.85
2022-08-22T20:27:43.453Z,23.59
2022-08-22T21:04:56.985Z,22.94
2022-08-22T21:10:26.855Z,22.84
2022-08-22T21:20:53.939Z,22.68
2022-08-22T21:29:27.020Z,22.6
2022-08-22T21:36:50.832Z,22.44
2022-08-22T21:47:30.139Z,22.29
2022-08-22T21:52:48.731Z,22.23
2022-08-22T22:03:37.751Z,22.12
2022-08-22T22:19:25.524Z,21.86
2022-08-22T22:30:03.567Z,21.69
2022-08-22T23:01:58.636Z,21.28
2022-08-22T23:12:36.477Z,21.12
2022-08-22T23:17:55.964Z,21.05
2022-08-22T23:28:34.728Z,20.95
2022-08-22T23:34:03.862Z,20.84
2022-08-22T23:44:32.802Z,20.71
2022-08-22T23:55:22.502Z,20.61
